Time;durP1;ratioP1;P1;durP2;ratioP2;P2;SDS_P1;SDS_P2;PMS_P1;PMS_P2;Temp;Humidity;BMP_temperature;BMP_pressure;BME280_temperature;BME280_humidity;BME280_pressure;Samples;Min_cycle;Max_cycle;Signal;HPM_P1;HPM_P2
2024/01/08 00:00:01;;;;;;;10.85;8.4;;;;;;;0.65;77.59863;95332.03;;;;
2024/01/08 00:01:03;;;;;;;10.85;8.4;;;;;;;0.65;77.59863;95332.03;;;;
2024/01/08 00:02:04;;;;;;;10.85;8.4;;;;;;;0.65;77.59863;95332.03;;;;
2024/01/08 00:03:04;;;;;;;10.85;8.4;;;;;;;0.65;77.59863;95332.03;;;;
2024/01/08 00:04:05;;;;;;;11.25;8.3;;;;;;;0.54;77.56836;95338.36;;;;
2024/01/08 00:05:08;;;;;;;11.25;8.3;;;;;;;0.54;77.56836;95338.36;;;;
2024/01/08 00:06:08;;;;;;;11.25;8.3;;;;;;;0.54;77.56836;95338.36;;;;
2024/01/08 00:07:09;;;;;;;11.25;8.3;;;;;;;0.54;77.56836;95338.36;;;;
2024/01/08 00:08:09;;;;;;;11.25;8.3;;;;;;;0.54;77.56836;95338.36;;;;
2024/01/08 00:09:10;;;;;;;11.25;8.3;;;;;;;0.54;77.56836;95338.36;;;;
2024/01/08 00:10:10;;;;;;;11.25;8.3;;;;;;;0.54;77.56836;95338.36;;;;
2024/01/08 00:11:11;;;;;;;11.25;8.3;;;;;;;0.54;77.56836;95338.36;;;;
2024/01/08 00:12:11;;;;;;;11.25;8.3;;;;;;;0.54;77.56836;95338.36;;;;
2024/01/08 00:13:12;;;;;;;11.25;8.3;;;;;;;0.54;77.56836;95338.36;;;;
2024/01/08 00:14:12;;;;;;;11.25;8.3;;;;;;;0.54;77.56836;95338.36;;;;
2024/01/08 00:15:13;;;;;;;10.9;7.65;;;;;;;0.48;77.50684;95343.28;;;;
2024/01/08 00:16:13;;;;;;;10.9;7.65;;;;;;;0.48;77.50684;95343.28;;;;
2024/01/08 00:17:14;;;;;;;10.9;7.65;;;;;;;0.48;77.50684;95343.28;;;;
2024/01/08 00:18:14;;;;;;;10.9;7.65;;;;;;;0.48;77.50684;95343.28;;;;
2024/01/08 00:19:16;;;;;;;10.9;7.65;;;;;;;0.48;77.50684;95343.28;;;;
2024/01/08 00:20:17;;;;;;;10.9;7.65;;;;;;;0.48;77.50684;95343.28;;;;
2024/01/08 00:21:17;;;;;;;10.9;7.65;;;;;;;0.48;77.50684;95343.28;;;;
2024/01/08 00:22:18;;;;;;;10.9;7.65;;;;;;;0.48;77.50684;95343.28;;;;
2024/01/08 00:23:18;;;;;;;10.9;7.65;;;;;;;0.48;77.50684;95343.28;;;;
2024/01/08 00:24:19;;;;;;;10.9;7.65;;;;;;;0.48;77.50684;95343.28;;;;
2024/01/08 00:25:21;;;;;;;10.9;7.65;;;;;;;0.48;77.50684;95343.28;;;;
2024/01/08 00:26:22;;;;;;;10.25;7.450001;;;;;;;0.37;77.74707;95348.71;;;;
2024/01/08 00:27:22;;;;;;;10.25;7.450001;;;;;;;0.37;77.74707;95348.71;;;;
2024/01/08 00:28:23;;;;;;;10.25;7.450001;;;;;;;0.37;77.74707;95348.71;;;;
2024/01/08 00:29:23;;;;;;;10.25;7.450001;;;;;;;0.37;77.74707;95348.71;;;;
2024/01/08 00:30:24;;;;;;;10.25;7.450001;;;;;;;0.37;77.74707;95348.71;;;;
2024/01/08 00:31:24;;;;;;;10.25;7.450001;;;;;;;0.37;77.74707;95348.71;;;;
2024/01/08 00:32:25;;;;;;;10.25;7.450001;;;;;;;0.37;77.74707;95348.71;;;;
2024/01/08 00:33:25;;;;;;;10.25;7.450001;;;;;;;0.37;77.74707;95348.71;;;;
2024/01/08 00:34:27;;;;;;;10.25;7.450001;;;;;;;0.37;77.74707;95348.71;;;;
2024/01/08 00:35:27;;;;;;;10.25;7.450001;;;;;;;0.37;77.74707;95348.71;;;;
2024/01/08 00:36:28;;;;;;;9.450002;6.85;;;;;;;0.3;77.73535;95349.43;;;;
2024/01/08 00:37:33;;;;;;;9.450002;6.85;;;;;;;0.3;77.73535;95349.43;;;;
2024/01/08 00:38:34;;;;;;;9.450002;6.85;;;;;;;0.3;77.73535;95349.43;;;;
2024/01/08 00:39:34;;;;;;;9.450002;6.85;;;;;;;0.3;77.73535;95349.43;;;;
2024/01/08 00:40:35;;;;;;;9.450002;6.85;;;;;;;0.3;77.73535;95349.43;;;;
2024/01/08 00:41:35;;;;;;;9.450002;6.85;;;;;;;0.3;77.73535;95349.43;;;;
2024/01/08 00:42:35;;;;;;;9.450002;6.85;;;;;;;0.3;77.73535;95349.43;;;;
2024/01/08 00:43:37;;;;;;;9.450002;6.85;;;;;;;0.3;77.73535;95349.43;;;;
2024/01/08 00:44:37;;;;;;;9.450002;6.85;;;;;;;0.3;77.73535;95349.43;;;;
2024/01/08 00:45:38;;;;;;;9.450002;6.85;;;;;;;0.3;77.73535;95349.43;;;;
2024/01/08 00:46:38;;;;;;;9.450002;6.85;;;;;;;0.3;77.73535;95349.43;;;;
2024/01/08 00:47:39;;;;;;;7.8;6.55;;;;;;;0.14;77.51758;95355.71;;;;
2024/01/08 00:48:40;;;;;;;7.8;6.55;;;;;;;0.14;77.51758;95355.71;;;;
2024/01/08 00:49:40;;;;;;;7.8;6.55;;;;;;;0.14;77.51758;95355.71;;;;
2024/01/08 00:50:40;;;;;;;7.8;6.55;;;;;;;0.14;77.51758;95355.71;;;;
2024/01/08 00:51:41;;;;;;;7.8;6.55;;;;;;;0.14;77.51758;95355.71;;;;
2024/01/08 00:52:42;;;;;;;7.8;6.55;;;;;;;0.14;77.51758;95355.71;;;;
2024/01/08 00:53:42;;;;;;;7.8;6.55;;;;;;;0.14;77.51758;95355.71;;;;
2024/01/08 00:54:43;;;;;;;7.8;6.55;;;;;;;0.14;77.51758;95355.71;;;;
2024/01/08 00:55:43;;;;;;;7.8;6.55;;;;;;;0.14;77.51758;95355.71;;;;
2024/01/08 00:56:44;;;;;;;7.8;6.55;;;;;;;0.14;77.51758;95355.71;;;;
2024/01/08 00:57:45;;;;;;;9.149999;6.599999;;;;;;;0.02;77.50586;95361.24;;;;
2024/01/08 00:58:45;;;;;;;9.149999;6.599999;;;;;;;0.02;77.50586;95361.24;;;;
2024/01/08 00:59:45;;;;;;;9.149999;6.599999;;;;;;;0.02;77.50586;95361.24;;;;
2024/01/08 01:00:46;;;;;;;9.149999;6.599999;;;;;;;0.02;77.50586;95361.24;;;;
2024/01/08 01:01:46;;;;;;;9.149999;6.599999;;;;;;;0.02;77.50586;95361.24;;;;
2024/01/08 01:02:47;;;;;;;9.149999;6.599999;;;;;;;0.02;77.50586;95361.24;;;;
2024/01/08 01:03:47;;;;;;;9.149999;6.599999;;;;;;;0.02;77.50586;95361.24;;;;
2024/01/08 01:04:48;;;;;;;9.149999;6.599999;;;;;;;0.02;77.50586;95361.24;;;;
2024/01/08 01:05:48;;;;;;;9.149999;6.599999;;;;;;;0.02;77.50586;95361.24;;;;
2024/01/08 01:06:49;;;;;;;9.149999;6.599999;;;;;;;0.02;77.50586;95361.24;;;;
2024/01/08 01:07:50;;;;;;;9.149999;6.599999;;;;;;;0.02;77.50586;95361.24;;;;
2024/01/08 01:08:50;;;;;;;8.700001;7.199999;;;;;;;-0.16;77.64063;95362.92;;;;
2024/01/08 01:09:50;;;;;;;8.700001;7.199999;;;;;;;-0.16;77.64063;95362.92;;;;
2024/01/08 01:10:51;;;;;;;8.700001;7.199999;;;;;;;-0.16;77.64063;95362.92;;;;
2024/01/08 01:11:51;;;;;;;8.700001;7.199999;;;;;;;-0.16;77.64063;95362.92;;;;
2024/01/08 01:12:52;;;;;;;8.700001;7.199999;;;;;;;-0.16;77.64063;95362.92;;;;
2024/01/08 01:13:52;;;;;;;8.700001;7.199999;;;;;;;-0.16;77.64063;95362.92;;;;
2024/01/08 01:14:53;;;;;;;8.700001;7.199999;;;;;;;-0.16;77.64063;95362.92;;;;
2024/01/08 01:15:53;;;;;;;8.700001;7.199999;;;;;;;-0.16;77.64063;95362.92;;;;
2024/01/08 01:16:54;;;;;;;8.700001;7.199999;;;;;;;-0.16;77.64063;95362.92;;;;
2024/01/08 01:17:54;;;;;;;8.700001;7.199999;;;;;;;-0.16;77.64063;95362.92;;;;
2024/01/08 01:18:54;;;;;;;8.700001;7.199999;;;;;;;-0.16;77.64063;95362.92;;;;
2024/01/08 01:19:55;;;;;;;9.8;7.4;;;;;;;-0.25;77.60352;95367.75;;;;
2024/01/08 01:20:56;;;;;;;9.8;7.4;;;;;;;-0.25;77.60352;95367.75;;;;
2024/01/08 01:21:56;;;;;;;9.8;7.4;;;;;;;-0.25;77.60352;95367.75;;;;
2024/01/08 01:22:57;;;;;;;9.8;7.4;;;;;;;-0.25;77.60352;95367.75;;;;
2024/01/08 01:23:57;;;;;;;9.8;7.4;;;;;;;-0.25;77.60352;95367.75;;;;
2024/01/08 01:24:58;;;;;;;9.8;7.4;;;;;;;-0.25;77.60352;95367.75;;;;
2024/01/08 01:25:58;;;;;;;9.8;7.4;;;;;;;-0.25;77.60352;95367.75;;;;
2024/01/08 01:26:59;;;;;;;9.8;7.4;;;;;;;-0.25;77.60352;95367.75;;;;
2024/01/08 01:27:59;;;;;;;9.8;7.4;;;;;;;-0.25;77.60352;95367.75;;;;
2024/01/08 01:29:00;;;;;;;9.8;7.4;;;;;;;-0.25;77.60352;95367.75;;;;
2024/01/08 01:30:00;;;;;;;9.349999;7.099999;;;;;;;-0.32;77.43457;95383.56;;;;
2024/01/08 01:31:03;;;;;;;9.349999;7.099999;;;;;;;-0.32;77.43457;95383.56;;;;
2024/01/08 01:32:04;;;;;;;9.349999;7.099999;;;;;;;-0.32;77.43457;95383.56;;;;
2024/01/08 01:33:05;;;;;;;9.349999;7.099999;;;;;;;-0.32;77.43457;95383.56;;;;
2024/01/08 01:34:06;;;;;;;9.349999;7.099999;;;;;;;-0.32;77.43457;95383.56;;;;
2024/01/08 01:35:07;;;;;;;9.349999;7.099999;;;;;;;-0.32;77.43457;95383.56;;;;
2024/01/08 01:36:08;;;;;;;9.349999;7.099999;;;;;;;-0.32;77.43457;95383.56;;;;
2024/01/08 01:37:09;;;;;;;9.349999;7.099999;;;;;;;-0.32;77.43457;95383.56;;;;
2024/01/08 01:38:10;;;;;;;9.349999;7.099999;;;;;;;-0.32;77.43457;95383.56;;;;
2024/01/08 01:39:11;;;;;;;9.349999;7.099999;;;;;;;-0.32;77.43457;95383.56;;;;
2024/01/08 01:40:11;;;;;;;9.349999;7.099999;;;;;;;-0.32;77.43457;95383.56;;;;
2024/01/08 01:41:12;;;;;;;8.75;6.800001;;;;;;;-0.43;77.40332;95391.06;;;;
2024/01/08 01:42:12;;;;;;;8.75;6.800001;;;;;;;-0.43;77.40332;95391.06;;;;
2024/01/08 01:43:13;;;;;;;8.75;6.800001;;;;;;;-0.43;77.40332;95391.06;;;;
2024/01/08 01:44:21;;;;;;;8.75;6.800001;;;;;;;-0.43;77.40332;95391.06;;;;
2024/01/08 01:45:22;;;;;;;8.75;6.800001;;;;;;;-0.43;77.40332;95391.06;;;;
2024/01/08 01:46:22;;;;;;;8.75;6.800001;;;;;;;-0.43;77.40332;95391.06;;;;
2024/01/08 01:47:25;;;;;;;8.75;6.800001;;;;;;;-0.43;77.40332;95391.06;;;;
2024/01/08 01:48:27;;;;;;;8.75;6.800001;;;;;;;-0.43;77.40332;95391.06;;;;
2024/01/08 01:49:28;;;;;;;8.75;6.800001;;;;;;;-0.43;77.40332;95391.06;;;;
2024/01/08 01:50:28;;;;;;;8.75;6.800001;;;;;;;-0.43;77.40332;95391.06;;;;
2024/01/08 01:51:29;;;;;;;9.35;7.349999;;;;;;;-0.54;77.48926;95403.34;;;;
2024/01/08 01:52:29;;;;;;;9.35;7.349999;;;;;;;-0.54;77.48926;95403.34;;;;
2024/01/08 01:53:30;;;;;;;9.35;7.349999;;;;;;;-0.54;77.48926;95403.34;;;;
2024/01/08 01:54:31;;;;;;;9.35;7.349999;;;;;;;-0.54;77.48926;95403.34;;;;
2024/01/08 01:55:32;;;;;;;9.35;7.349999;;;;;;;-0.54;77.48926;95403.34;;;;
2024/01/08 01:56:32;;;;;;;9.35;7.349999;;;;;;;-0.54;77.48926;95403.34;;;;
2024/01/08 01:57:34;;;;;;;9.35;7.349999;;;;;;;-0.54;77.48926;95403.34;;;;
2024/01/08 01:58:35;;;;;;;9.35;7.349999;;;;;;;-0.54;77.48926;95403.34;;;;
2024/01/08 01:59:35;;;;;;;9.35;7.349999;;;;;;;-0.54;77.48926;95403.34;;;;
2024/01/08 02:00:36;;;;;;;9.35;7.349999;;;;;;;-0.54;77.48926;95403.34;;;;
2024/01/08 02:01:36;;;;;;;9.35;7.349999;;;;;;;-0.54;77.48926;95403.34;;;;
2024/01/08 02:02:37;;;;;;;10.35;7.5;;;;;;;-0.64;77.61523;95405.62;;;;
2024/01/08 02:03:38;;;;;;;10.35;7.5;;;;;;;-0.64;77.61523;95405.62;;;;
2024/01/08 02:04:39;;;;;;;10.35;7.5;;;;;;;-0.64;77.61523;95405.62;;;;
2024/01/08 02:05:42;;;;;;;10.35;7.5;;;;;;;-0.64;77.61523;95405.62;;;;
2024/01/08 02:06:43;;;;;;;10.35;7.5;;;;;;;-0.64;77.61523;95405.62;;;;
2024/01/08 02:07:44;;;;;;;10.35;7.5;;;;;;;-0.64;77.61523;95405.62;;;;
2024/01/08 02:08:47;;;;;;;10.35;7.5;;;;;;;-0.64;77.61523;95405.62;;;;
2024/01/08 02:09:48;;;;;;;10.35;7.5;;;;;;;-0.64;77.61523;95405.62;;;;
2024/01/08 02:10:50;;;;;;;10.35;7.5;;;;;;;-0.64;77.61523;95405.62;;;;
2024/01/08 02:11:51;;;;;;;10.35;7.5;;;;;;;-0.64;77.61523;95405.62;;;;
2024/01/08 02:12:52;;;;;;;11.1;7.25;;;;;;;-0.72;77.49707;95405.92;;;;
2024/01/08 02:13:52;;;;;;;11.1;7.25;;;;;;;-0.72;77.49707;95405.92;;;;
2024/01/08 02:14:53;;;;;;;11.1;7.25;;;;;;;-0.72;77.49707;95405.92;;;;
2024/01/08 02:15:53;;;;;;;11.1;7.25;;;;;;;-0.72;77.49707;95405.92;;;;
2024/01/08 02:16:54;;;;;;;11.1;7.25;;;;;;;-0.72;77.49707;95405.92;;;;
2024/01/08 02:17:54;;;;;;;11.1;7.25;;;;;;;-0.72;77.49707;95405.92;;;;
2024/01/08 02:18:55;;;;;;;11.1;7.25;;;;;;;-0.72;77.49707;95405.92;;;;
2024/01/08 02:19:55;;;;;;;11.1;7.25;;;;;;;-0.72;77.49707;95405.92;;;;
2024/01/08 02:20:56;;;;;;;11.1;7.25;;;;;;;-0.72;77.49707;95405.92;;;;
2024/01/08 02:21:56;;;;;;;11.1;7.25;;;;;;;-0.72;77.49707;95405.92;;;;
2024/01/08 02:22:58;;;;;;;11.1;7.25;;;;;;;-0.72;77.49707;95405.92;;;;
2024/01/08 02:23:59;;;;;;;9.849999;7.3;;;;;;;-0.79;77.58984;95405.25;;;;
2024/01/08 02:25:00;;;;;;;9.849999;7.3;;;;;;;-0.79;77.58984;95405.25;;;;
2024/01/08 02:26:00;;;;;;;9.849999;7.3;;;;;;;-0.79;77.58984;95405.25;;;;
2024/01/08 02:27:01;;;;;;;9.849999;7.3;;;;;;;-0.79;77.58984;95405.25;;;;
2024/01/08 02:28:02;;;;;;;9.849999;7.3;;;;;;;-0.79;77.58984;95405.25;;;;
2024/01/08 02:29:03;;;;;;;9.849999;7.3;;;;;;;-0.79;77.58984;95405.25;;;;
2024/01/08 02:30:04;;;;;;;9.849999;7.3;;;;;;;-0.79;77.58984;95405.25;;;;
2024/01/08 02:31:06;;;;;;;9.849999;7.3;;;;;;;-0.79;77.58984;95405.25;;;;
2024/01/08 02:32:07;;;;;;;9.849999;7.3;;;;;;;-0.79;77.58984;95405.25;;;;
2024/01/08 02:33:07;;;;;;;9.849999;7.3;;;;;;;-0.79;77.58984;95405.25;;;;
2024/01/08 02:34:08;;;;;;;10.4;7.3;;;;;;;-0.86;77.94238;95394.28;;;;
2024/01/08 02:35:08;;;;;;;10.4;7.3;;;;;;;-0.86;77.94238;95394.28;;;;
2024/01/08 02:36:09;;;;;;;10.4;7.3;;;;;;;-0.86;77.94238;95394.28;;;;
2024/01/08 02:37:09;;;;;;;10.4;7.3;;;;;;;-0.86;77.94238;95394.28;;;;
2024/01/08 02:38:10;;;;;;;10.4;7.3;;;;;;;-0.86;77.94238;95394.28;;;;
2024/01/08 02:39:11;;;;;;;10.4;7.3;;;;;;;-0.86;77.94238;95394.28;;;;
2024/01/08 02:40:11;;;;;;;10.4;7.3;;;;;;;-0.86;77.94238;95394.28;;;;
2024/01/08 02:41:12;;;;;;;10.4;7.3;;;;;;;-0.86;77.94238;95394.28;;;;
2024/01/08 02:42:13;;;;;;;10.4;7.3;;;;;;;-0.86;77.94238;95394.28;;;;
2024/01/08 02:43:14;;;;;;;10.4;7.3;;;;;;;-0.86;77.94238;95394.28;;;;
2024/01/08 02:44:14;;;;;;;10.4;7.3;;;;;;;-0.86;77.94238;95394.28;;;;
2024/01/08 02:45:15;;;;;;;9.950002;7.499999;;;;;;;-0.82;77.80273;95396.92;;;;
2024/01/08 02:46:15;;;;;;;9.950002;7.499999;;;;;;;-0.82;77.80273;95396.92;;;;
2024/01/08 02:47:16;;;;;;;9.950002;7.499999;;;;;;;-0.82;77.80273;95396.92;;;;
2024/01/08 02:48:16;;;;;;;9.950002;7.499999;;;;;;;-0.82;77.80273;95396.92;;;;
2024/01/08 02:49:17;;;;;;;9.950002;7.499999;;;;;;;-0.82;77.80273;95396.92;;;;
2024/01/08 02:50:17;;;;;;;9.950002;7.499999;;;;;;;-0.82;77.80273;95396.92;;;;
2024/01/08 02:51:18;;;;;;;9.950002;7.499999;;;;;;;-0.82;77.80273;95396.92;;;;
2024/01/08 02:52:18;;;;;;;9.950002;7.499999;;;;;;;-0.82;77.80273;95396.92;;;;
2024/01/08 02:53:19;;;;;;;9.950002;7.499999;;;;;;;-0.82;77.80273;95396.92;;;;
2024/01/08 02:54:19;;;;;;;9.950002;7.499999;;;;;;;-0.82;77.80273;95396.92;;;;
2024/01/08 02:55:20;;;;;;;9.950002;7.499999;;;;;;;-0.82;77.80273;95396.92;;;;
2024/01/08 02:56:20;;;;;;;9.950002;7.499999;;;;;;;-0.82;77.80273;95396.92;;;;
2024/01/08 02:57:22;;;;;;;9.950002;7.499999;;;;;;;-0.82;77.80273;95396.92;;;;
2024/01/08 02:58:22;;;;;;;9.950002;7.499999;;;;;;;-0.82;77.80273;95396.92;;;;
2024/01/08 02:59:23;;;;;;;9.950002;7.499999;;;;;;;-0.82;77.80273;95396.92;;;;
2024/01/08 03:00:23;;;;;;;9.950002;7.499999;;;;;;;-0.82;77.80273;95396.92;;;;
2024/01/08 03:01:24;;;;;;;9.950002;7.499999;;;;;;;-0.82;77.80273;95396.92;;;;
2024/01/08 03:02:24;;;;;;;9.950002;7.499999;;;;;;;-0.82;77.80273;95396.92;;;;
2024/01/08 03:03:25;;;;;;;9.950002;7.499999;;;;;;;-0.82;77.80273;95396.92;;;;
2024/01/08 03:04:26;;;;;;;9.950002;7.499999;;;;;;;-0.82;77.80273;95396.92;;;;
2024/01/08 03:05:26;;;;;;;9.950002;7.499999;;;;;;;-0.82;77.80273;95396.92;;;;
2024/01/08 03:06:27;;;;;;;8.299999;7.350001;;;;;;;-0.85;77.73633;95407.53;;;;
2024/01/08 03:07:27;;;;;;;8.299999;7.350001;;;;;;;-0.85;77.73633;95407.53;;;;
2024/01/08 03:08:28;;;;;;;8.299999;7.350001;;;;;;;-0.85;77.73633;95407.53;;;;
2024/01/08 03:09:28;;;;;;;8.299999;7.350001;;;;;;;-0.85;77.73633;95407.53;;;;
2024/01/08 03:10:29;;;;;;;8.299999;7.350001;;;;;;;-0.85;77.73633;95407.53;;;;
2024/01/08 03:11:29;;;;;;;8.299999;7.350001;;;;;;;-0.85;77.73633;95407.53;;;;
2024/01/08 03:12:30;;;;;;;8.299999;7.350001;;;;;;;-0.85;77.73633;95407.53;;;;
2024/01/08 03:13:30;;;;;;;8.299999;7.350001;;;;;;;-0.85;77.73633;95407.53;;;;
2024/01/08 03:14:31;;;;;;;8.299999;7.350001;;;;;;;-0.85;77.73633;95407.53;;;;
2024/01/08 03:15:31;;;;;;;8.299999;7.350001;;;;;;;-0.85;77.73633;95407.53;;;;
2024/01/08 03:16:32;;;;;;;8.299999;7.350001;;;;;;;-0.85;77.73633;95407.53;;;;
2024/01/08 03:17:32;;;;;;;10.5;7.35;;;;;;;-0.88;77.625;95413.05;;;;
2024/01/08 03:18:33;;;;;;;10.5;7.35;;;;;;;-0.88;77.625;95413.05;;;;
2024/01/08 03:19:33;;;;;;;10.5;7.35;;;;;;;-0.88;77.625;95413.05;;;;
2024/01/08 03:20:34;;;;;;;10.5;7.35;;;;;;;-0.88;77.625;95413.05;;;;
2024/01/08 03:21:34;;;;;;;10.5;7.35;;;;;;;-0.88;77.625;95413.05;;;;
2024/01/08 03:22:35;;;;;;;10.5;7.35;;;;;;;-0.88;77.625;95413.05;;;;
2024/01/08 03:23:35;;;;;;;10.5;7.35;;;;;;;-0.88;77.625;95413.05;;;;
2024/01/08 03:24:36;;;;;;;10.5;7.35;;;;;;;-0.88;77.625;95413.05;;;;
2024/01/08 03:25:36;;;;;;;10.5;7.35;;;;;;;-0.88;77.625;95413.05;;;;
2024/01/08 03:26:37;;;;;;;10.5;7.35;;;;;;;-0.88;77.625;95413.05;;;;
2024/01/08 03:27:37;;;;;;;11.15;10.05;;;;;;;-0.91;77.45215;95416.35;;;;
2024/01/08 03:28:38;;;;;;;11.15;10.05;;;;;;;-0.91;77.45215;95416.35;;;;
2024/01/08 03:29:39;;;;;;;11.15;10.05;;;;;;;-0.91;77.45215;95416.35;;;;
2024/01/08 03:30:40;;;;;;;11.15;10.05;;;;;;;-0.91;77.45215;95416.35;;;;
2024/01/08 03:31:40;;;;;;;11.15;10.05;;;;;;;-0.91;77.45215;95416.35;;;;
2024/01/08 03:32:41;;;;;;;11.15;10.05;;;;;;;-0.91;77.45215;95416.35;;;;
2024/01/08 03:33:42;;;;;;;11.15;10.05;;;;;;;-0.91;77.45215;95416.35;;;;
2024/01/08 03:34:42;;;;;;;11.15;10.05;;;;;;;-0.91;77.45215;95416.35;;;;
2024/01/08 03:35:43;;;;;;;11.15;10.05;;;;;;;-0.91;77.45215;95416.35;;;;
2024/01/08 03:36:43;;;;;;;11.15;10.05;;;;;;;-0.91;77.45215;95416.35;;;;
2024/01/08 03:37:44;;;;;;;11.15;10.05;;;;;;;-0.91;77.45215;95416.35;;;;
2024/01/08 03:38:45;;;;;;;11.5;10.3;;;;;;;-1.01;77.62207;95422.91;;;;
2024/01/08 03:39:46;;;;;;;11.5;10.3;;;;;;;-1.01;77.62207;95422.91;;;;
2024/01/08 03:40:46;;;;;;;11.5;10.3;;;;;;;-1.01;77.62207;95422.91;;;;
2024/01/08 03:41:47;;;;;;;11.5;10.3;;;;;;;-1.01;77.62207;95422.91;;;;
2024/01/08 03:42:47;;;;;;;11.5;10.3;;;;;;;-1.01;77.62207;95422.91;;;;
2024/01/08 03:43:48;;;;;;;11.5;10.3;;;;;;;-1.01;77.62207;95422.91;;;;
2024/01/08 03:44:48;;;;;;;11.5;10.3;;;;;;;-1.01;77.62207;95422.91;;;;
2024/01/08 03:45:49;;;;;;;11.5;10.3;;;;;;;-1.01;77.62207;95422.91;;;;
2024/01/08 03:46:49;;;;;;;11.5;10.3;;;;;;;-1.01;77.62207;95422.91;;;;
2024/01/08 03:47:50;;;;;;;11.5;10.3;;;;;;;-1.01;77.62207;95422.91;;;;
2024/01/08 03:48:50;;;;;;;10.85;9.65;;;;;;;-1.03;77.55762;95427.34;;;;
2024/01/08 03:49:51;;;;;;;10.85;9.65;;;;;;;-1.03;77.55762;95427.34;;;;
2024/01/08 03:50:51;;;;;;;10.85;9.65;;;;;;;-1.03;77.55762;95427.34;;;;
2024/01/08 03:51:52;;;;;;;10.85;9.65;;;;;;;-1.03;77.55762;95427.34;;;;
2024/01/08 03:52:52;;;;;;;10.85;9.65;;;;;;;-1.03;77.55762;95427.34;;;;
2024/01/08 03:53:53;;;;;;;10.85;9.65;;;;;;;-1.03;77.55762;95427.34;;;;
2024/01/08 03:54:53;;;;;;;10.85;9.65;;;;;;;-1.03;77.55762;95427.34;;;;
2024/01/08 03:55:54;;;;;;;10.85;9.65;;;;;;;-1.03;77.55762;95427.34;;;;
2024/01/08 03:56:54;;;;;;;10.85;9.65;;;;;;;-1.03;77.55762;95427.34;;;;
2024/01/08 03:57:55;;;;;;;10.85;9.65;;;;;;;-1.03;77.55762;95427.34;;;;
2024/01/08 03:58:55;;;;;;;10.85;9.65;;;;;;;-1.03;77.55762;95427.34;;;;
2024/01/08 03:59:56;;;;;;;11.9;10.4;;;;;;;-0.88;77.22754;95430.33;;;;
2024/01/08 04:00:56;;;;;;;11.9;10.4;;;;;;;-0.88;77.22754;95430.33;;;;
2024/01/08 04:01:57;;;;;;;11.9;10.4;;;;;;;-0.88;77.22754;95430.33;;;;
2024/01/08 04:02:57;;;;;;;11.9;10.4;;;;;;;-0.88;77.22754;95430.33;;;;
2024/01/08 04:03:58;;;;;;;11.9;10.4;;;;;;;-0.88;77.22754;95430.33;;;;
2024/01/08 04:04:58;;;;;;;11.9;10.4;;;;;;;-0.88;77.22754;95430.33;;;;
2024/01/08 04:05:59;;;;;;;11.9;10.4;;;;;;;-0.88;77.22754;95430.33;;;;
2024/01/08 04:06:59;;;;;;;11.9;10.4;;;;;;;-0.88;77.22754;95430.33;;;;
2024/01/08 04:07:59;;;;;;;11.9;10.4;;;;;;;-0.88;77.22754;95430.33;;;;
2024/01/08 04:09:00;;;;;;;11.9;10.4;;;;;;;-0.88;77.22754;95430.33;;;;
2024/01/08 04:10:01;;;;;;;11.9;10.4;;;;;;;-0.88;77.22754;95430.33;;;;
2024/01/08 04:11:02;;;;;;;10.65;7.75;;;;;;;-0.85;77.20117;95430.05;;;;
2024/01/08 04:12:04;;;;;;;10.65;7.75;;;;;;;-0.85;77.20117;95430.05;;;;
2024/01/08 04:13:06;;;;;;;10.65;7.75;;;;;;;-0.85;77.20117;95430.05;;;;
2024/01/08 04:14:06;;;;;;;10.65;7.75;;;;;;;-0.85;77.20117;95430.05;;;;
2024/01/08 04:15:06;;;;;;;10.65;7.75;;;;;;;-0.85;77.20117;95430.05;;;;
2024/01/08 04:16:08;;;;;;;10.65;7.75;;;;;;;-0.85;77.20117;95430.05;;;;
2024/01/08 04:17:08;;;;;;;10.65;7.75;;;;;;;-0.85;77.20117;95430.05;;;;
2024/01/08 04:18:09;;;;;;;10.65;7.75;;;;;;;-0.85;77.20117;95430.05;;;;
2024/01/08 04:19:09;;;;;;;10.65;7.75;;;;;;;-0.85;77.20117;95430.05;;;;
2024/01/08 04:20:09;;;;;;;10.65;7.75;;;;;;;-0.85;77.20117;95430.05;;;;
2024/01/08 04:21:10;;;;;;;14.2;8.5;;;;;;;-0.89;76.89063;95429.08;;;;
2024/01/08 04:22:15;;;;;;;14.2;8.5;;;;;;;-0.89;76.89063;95429.08;;;;
2024/01/08 04:23:15;;;;;;;14.2;8.5;;;;;;;-0.89;76.89063;95429.08;;;;
2024/01/08 04:24:16;;;;;;;14.2;8.5;;;;;;;-0.89;76.89063;95429.08;;;;
2024/01/08 04:25:16;;;;;;;14.2;8.5;;;;;;;-0.89;76.89063;95429.08;;;;
2024/01/08 04:26:18;;;;;;;14.2;8.5;;;;;;;-0.89;76.89063;95429.08;;;;
2024/01/08 04:27:19;;;;;;;14.2;8.5;;;;;;;-0.89;76.89063;95429.08;;;;
2024/01/08 04:28:20;;;;;;;14.2;8.5;;;;;;;-0.89;76.89063;95429.08;;;;
2024/01/08 04:29:20;;;;;;;14.2;8.5;;;;;;;-0.89;76.89063;95429.08;;;;
2024/01/08 04:30:21;;;;;;;14.2;8.5;;;;;;;-0.89;76.89063;95429.08;;;;
2024/01/08 04:31:21;;;;;;;14.2;8.5;;;;;;;-0.89;76.89063;95429.08;;;;
2024/01/08 04:32:22;;;;;;;12.15;10.85;;;;;;;-0.86;76.97949;95437.5;;;;
2024/01/08 04:33:22;;;;;;;12.15;10.85;;;;;;;-0.86;76.97949;95437.5;;;;
2024/01/08 04:34:23;;;;;;;12.15;10.85;;;;;;;-0.86;76.97949;95437.5;;;;
2024/01/08 04:35:23;;;;;;;12.15;10.85;;;;;;;-0.86;76.97949;95437.5;;;;
2024/01/08 04:36:24;;;;;;;12.15;10.85;;;;;;;-0.86;76.97949;95437.5;;;;
2024/01/08 04:37:26;;;;;;;12.15;10.85;;;;;;;-0.86;76.97949;95437.5;;;;
2024/01/08 04:38:27;;;;;;;12.15;10.85;;;;;;;-0.86;76.97949;95437.5;;;;
2024/01/08 04:39:27;;;;;;;12.15;10.85;;;;;;;-0.86;76.97949;95437.5;;;;
2024/01/08 04:40:28;;;;;;;12.15;10.85;;;;;;;-0.86;76.97949;95437.5;;;;
2024/01/08 04:41:28;;;;;;;12.15;10.85;;;;;;;-0.86;76.97949;95437.5;;;;
2024/01/08 04:42:29;;;;;;;12.05;9.150002;;;;;;;-0.89;76.95313;95448.55;;;;
2024/01/08 04:43:29;;;;;;;12.05;9.150002;;;;;;;-0.89;76.95313;95448.55;;;;
2024/01/08 04:44:30;;;;;;;12.05;9.150002;;;;;;;-0.89;76.95313;95448.55;;;;
2024/01/08 04:45:31;;;;;;;12.05;9.150002;;;;;;;-0.89;76.95313;95448.55;;;;
2024/01/08 04:46:32;;;;;;;12.05;9.150002;;;;;;;-0.89;76.95313;95448.55;;;;
2024/01/08 04:47:32;;;;;;;12.05;9.150002;;;;;;;-0.89;76.95313;95448.55;;;;
2024/01/08 04:48:33;;;;;;;12.05;9.150002;;;;;;;-0.89;76.95313;95448.55;;;;
2024/01/08 04:49:35;;;;;;;12.05;9.150002;;;;;;;-0.89;76.95313;95448.55;;;;
2024/01/08 04:50:35;;;;;;;12.05;9.150002;;;;;;;-0.89;76.95313;95448.55;;;;
2024/01/08 04:51:36;;;;;;;12.05;9.150002;;;;;;;-0.89;76.95313;95448.55;;;;
2024/01/08 04:52:36;;;;;;;12.05;9.150002;;;;;;;-0.89;76.95313;95448.55;;;;
2024/01/08 04:53:37;;;;;;;11.2;8.1;;;;;;;-0.89;76.96387;95449.05;;;;
2024/01/08 04:54:37;;;;;;;11.2;8.1;;;;;;;-0.89;76.96387;95449.05;;;;
2024/01/08 04:55:41;;;;;;;11.2;8.1;;;;;;;-0.89;76.96387;95449.05;;;;
2024/01/08 04:56:41;;;;;;;11.2;8.1;;;;;;;-0.89;76.96387;95449.05;;;;
2024/01/08 04:57:42;;;;;;;11.2;8.1;;;;;;;-0.89;76.96387;95449.05;;;;
2024/01/08 04:58:42;;;;;;;11.2;8.1;;;;;;;-0.89;76.96387;95449.05;;;;
2024/01/08 04:59:42;;;;;;;11.2;8.1;;;;;;;-0.89;76.96387;95449.05;;;;
2024/01/08 05:00:43;;;;;;;11.2;8.1;;;;;;;-0.89;76.96387;95449.05;;;;
2024/01/08 05:01:44;;;;;;;11.2;8.1;;;;;;;-0.89;76.96387;95449.05;;;;
2024/01/08 05:02:45;;;;;;;11.2;8.1;;;;;;;-0.89;76.96387;95449.05;;;;
2024/01/08 05:03:45;;;;;;;11.2;8.1;;;;;;;-0.89;76.96387;95449.05;;;;
2024/01/08 05:04:46;;;;;;;10.35;7.550001;;;;;;;-0.9;76.89941;95460.3;;;;
2024/01/08 05:05:47;;;;;;;10.35;7.550001;;;;;;;-0.9;76.89941;95460.3;;;;
2024/01/08 05:06:47;;;;;;;10.35;7.550001;;;;;;;-0.9;76.89941;95460.3;;;;
2024/01/08 05:07:48;;;;;;;10.35;7.550001;;;;;;;-0.9;76.89941;95460.3;;;;
2024/01/08 05:08:49;;;;;;;10.35;7.550001;;;;;;;-0.9;76.89941;95460.3;;;;
2024/01/08 05:09:49;;;;;;;10.35;7.550001;;;;;;;-0.9;76.89941;95460.3;;;;
2024/01/08 05:10:49;;;;;;;10.35;7.550001;;;;;;;-0.9;76.89941;95460.3;;;;
2024/01/08 05:11:50;;;;;;;10.35;7.550001;;;;;;;-0.9;76.89941;95460.3;;;;
2024/01/08 05:12:50;;;;;;;10.35;7.550001;;;;;;;-0.9;76.89941;95460.3;;;;
2024/01/08 05:13:51;;;;;;;10.35;7.550001;;;;;;;-0.9;76.89941;95460.3;;;;
2024/01/08 05:14:51;;;;;;;10.2;7.95;;;;;;;-0.91;76.85742;95452.15;;;;
2024/01/08 05:15:52;;;;;;;10.2;7.95;;;;;;;-0.91;76.85742;95452.15;;;;
2024/01/08 05:16:52;;;;;;;10.2;7.95;;;;;;;-0.91;76.85742;95452.15;;;;
2024/01/08 05:17:53;;;;;;;10.2;7.95;;;;;;;-0.91;76.85742;95452.15;;;;
2024/01/08 05:18:53;;;;;;;10.2;7.95;;;;;;;-0.91;76.85742;95452.15;;;;
2024/01/08 05:19:54;;;;;;;10.2;7.95;;;;;;;-0.91;76.85742;95452.15;;;;
2024/01/08 05:20:54;;;;;;;10.2;7.95;;;;;;;-0.91;76.85742;95452.15;;;;
2024/01/08 05:21:55;;;;;;;10.2;7.95;;;;;;;-0.91;76.85742;95452.15;;;;
2024/01/08 05:22:55;;;;;;;10.2;7.95;;;;;;;-0.91;76.85742;95452.15;;;;
2024/01/08 05:23:55;;;;;;;10.2;7.95;;;;;;;-0.91;76.85742;95452.15;;;;
2024/01/08 05:24:56;;;;;;;10.2;7.95;;;;;;;-0.91;76.85742;95452.15;;;;
2024/01/08 05:25:58;;;;;;;10.2;7.95;;;;;;;-0.91;76.85742;95452.15;;;;
2024/01/08 05:27:00;;;;;;;10.2;7.95;;;;;;;-0.91;76.85742;95452.15;;;;
2024/01/08 05:28:00;;;;;;;10.2;7.95;;;;;;;-0.91;76.85742;95452.15;;;;
2024/01/08 05:29:01;;;;;;;10.2;7.95;;;;;;;-0.91;76.85742;95452.15;;;;
2024/01/08 05:30:01;;;;;;;10.2;7.95;;;;;;;-0.91;76.85742;95452.15;;;;
2024/01/08 05:31:02;;;;;;;10.2;7.95;;;;;;;-0.91;76.85742;95452.15;;;;
2024/01/08 05:32:03;;;;;;;10.2;7.95;;;;;;;-0.91;76.85742;95452.15;;;;